This is the latest recevied weather packets stored in our database for station/object OK4PZ-5. If no packets are shown the sender has not sent any weather packets the latest 10 day(s).
| Time | Temp. | Humidity | Pressure | Rain* | Wind** | Luminosity | Snow |
|---|---|---|---|---|---|---|---|
| 1777450502 | 10.56° C | 35% | 1026 hPa | 0 mm | - | - | - |
| 1777449603 | 10° C | 36% | 1026 hPa | 0 mm | - | - | - |
| 1777448702 | 10° C | 35% | 1026 hPa | 0 mm | - | - | - |
| 1777447802 | 10° C | 36% | 1026 hPa | 0 mm | - | - | - |
| 1777446903 | 10° C | 36% | 1026 hPa | 0 mm | - | - | - |
| 1777446002 | 9.44° C | 38% | 1026 hPa | 0 mm | - | - | - |
| 1777445102 | 8.89° C | 41% | 1026 hPa | 0 mm | - | - | - |
| 1777444203 | 7.78° C | 44% | 1026 hPa | 0 mm | - | - | - |
| 1777443303 | 6.67° C | 45% | 1026 hPa | 0 mm | - | - | - |
| 1777442403 | 6.11° C | 49% | 1026 hPa | 0 mm | - | - | - |
| 1777441502 | 5.56° C | 49% | 1026 hPa | 0 mm | - | - | - |
| 1777440603 | 4.44° C | 53% | 1025 hPa | 0 mm | - | - | - |
| 1777439703 | 3.33° C | 65% | 1025 hPa | 0 mm | - | - | - |
| 1777438802 | 1.67° C | 70% | 1025 hPa | 0 mm | - | - | - |
| 1777437902 | 1.11° C | 70% | 1025 hPa | 0 mm | - | - | - |
| 1777437002 | 0.56° C | 74% | 1025 hPa | 0 mm | - | - | - |
| 1777436103 | 0° C | 77% | 1025 hPa | 0 mm | - | - | - |
| 1777435202 | 0° C | 78% | 1025 hPa | 0 mm | - | - | - |
| 1777434302 | -0.56° C | 79% | 1025 hPa | 0 mm | - | - | - |
| 1777433402 | 0° C | 78% | 1024 hPa | 0 mm | - | - | - |
| 1777432502 | 0° C | 75% | 1024 hPa | 0 mm | - | - | - |
| 1777431602 | 0.56° C | 73% | 1024 hPa | 0 mm | - | - | - |
| 1777430713 | 0.56° C | 74% | 1024 hPa | 0 mm | - | - | - |
| 1777429802 | 1.11° C | 72% | 1024 hPa | 0 mm | - | - | - |
| 1777428902 | 1.67° C | 68% | 1024 hPa | 0 mm | - | - | - |
* Rain latest hour (hover to see other rain measurements)
** Current wind speed in m/s (hover to see current wind gust speed)